createdAt,value
2023-03-28T00:00:15.128Z,41.60
2023-03-28T00:00:48.539Z,41.68
2023-03-28T00:01:20.915Z,41.63
2023-03-28T00:01:56.002Z,41.84
2023-03-28T00:02:28.373Z,41.86
2023-03-28T00:03:00.792Z,41.66
2023-03-28T00:03:39.811Z,41.63
2023-03-28T00:04:13.300Z,41.81
2023-03-28T00:04:50.907Z,41.78
2023-03-28T00:05:24.398Z,41.54
2023-03-28T00:05:57.609Z,41.42
2023-03-28T00:06:32.737Z,41.57
2023-03-28T00:07:05.832Z,41.29
2023-03-28T00:07:38.659Z,41.81
2023-03-28T00:08:14.857Z,41.44
2023-03-28T00:08:47.677Z,41.69
2023-03-28T00:09:20.311Z,41.75
2023-03-28T00:09:56.398Z,41.39
2023-03-28T00:10:29.408Z,41.77
2023-03-28T00:11:08.715Z,41.67
2023-03-28T00:11:41.079Z,41.63
2023-03-28T00:12:13.408Z,41.84
2023-03-28T00:12:48.535Z,41.59
2023-03-28T00:13:21.544Z,41.78
2023-03-28T00:14:01.251Z,41.78
2023-03-28T00:14:35.836Z,41.38
2023-03-28T00:15:08.794Z,41.28
2023-03-28T00:15:44.929Z,41.40
2023-03-28T00:16:17.360Z,41.69
2023-03-28T00:16:50.671Z,41.46
2023-03-28T00:17:25.609Z,41.42
2023-03-28T00:18:00.350Z,41.47
2023-03-28T00:18:37.801Z,41.42
2023-03-28T00:19:15.690Z,41.25
2023-03-28T00:19:50.671Z,41.36
2023-03-28T00:20:23.104Z,41.71
2023-03-28T00:20:59.077Z,41.64
2023-03-28T00:21:33.056Z,41.56
2023-03-28T00:22:05.385Z,41.49
2023-03-28T00:22:41.038Z,41.50
2023-03-28T00:23:13.498Z,41.73
2023-03-28T00:23:45.891Z,41.44
2023-03-28T00:24:22.646Z,41.42
2023-03-28T00:24:54.983Z,41.58
2023-03-28T00:25:27.315Z,41.37
2023-03-28T00:26:08.139Z,41.61
2023-03-28T00:26:41.065Z,41.48
2023-03-28T00:27:13.403Z,41.67
2023-03-28T00:27:48.334Z,41.48
2023-03-28T00:28:20.820Z,41.59
2023-03-28T00:28:53.650Z,41.27
2023-03-28T00:29:30.361Z,41.39
2023-03-28T00:30:04.032Z,41.52
2023-03-28T00:30:36.390Z,41.34
2023-03-28T00:31:11.698Z,41.71
2023-03-28T00:31:44.200Z,41.15
2023-03-28T00:32:16.640Z,41.41
2023-03-28T00:32:52.109Z,41.34
2023-03-28T00:33:24.653Z,41.30
2023-03-28T00:33:57.730Z,41.36
2023-03-28T00:34:32.692Z,41.35
2023-03-28T00:35:09.839Z,41.23
2023-03-28T00:35:42.340Z,41.31
2023-03-28T00:36:18.701Z,41.68
2023-03-28T00:36:51.134Z,41.61
2023-03-28T00:37:23.791Z,41.53
2023-03-28T00:37:59.637Z,41.49
2023-03-28T00:38:32.278Z,41.24
2023-03-28T00:39:06.870Z,41.32
2023-03-28T00:39:43.650Z,41.34
2023-03-28T00:40:16.183Z,41.44
2023-03-28T00:40:48.922Z,41.68
2023-03-28T00:41:24.731Z,41.48
2023-03-28T00:42:01.717Z,41.21
2023-03-28T00:42:34.102Z,41.54
2023-03-28T00:43:09.089Z,41.32
2023-03-28T00:43:43.488Z,41.58
2023-03-28T00:44:58.491Z,41.42
2023-03-28T00:45:31.114Z,41.46
2023-03-28T00:46:09.009Z,41.31
2023-03-28T00:46:45.203Z,41.56
2023-03-28T00:47:26.092Z,41.34
2023-03-28T00:48:02.348Z,41.55
2023-03-28T00:48:37.360Z,41.68
2023-03-28T00:49:14.102Z,41.29
2023-03-28T00:49:49.835Z,41.63
2023-03-28T00:50:30.964Z,41.68
2023-03-28T00:51:04.010Z,41.27
2023-03-28T00:51:38.042Z,41.34
2023-03-28T00:52:15.660Z,41.47
2023-03-28T00:52:53.091Z,41.34
2023-03-28T00:53:26.567Z,41.46
2023-03-28T00:54:02.949Z,41.39
2023-03-28T00:54:39.827Z,41.71
2023-03-28T00:55:16.416Z,41.73
2023-03-28T00:55:54.137Z,41.28
2023-03-28T00:56:29.936Z,41.56
2023-03-28T00:57:02.906Z,41.54
2023-03-28T00:57:38.403Z,41.52
2023-03-28T00:58:13.803Z,41.75
2023-03-28T00:58:47.508Z,41.76
2023-03-28T00:59:24.589Z,41.74
2023-03-28T00:59:56.999Z,41.79
2023-03-28T01:00:31.202Z,41.58
2023-03-28T01:01:08.777Z,41.55
2023-03-28T01:01:41.442Z,41.60
2023-03-28T01:02:13.929Z,41.39
2023-03-28T01:02:53.498Z,41.43
2023-03-28T01:03:28.902Z,41.36
2023-03-28T01:04:03.265Z,41.37
2023-03-28T01:04:41.584Z,41.47
2023-03-28T01:05:14.296Z,41.63
2023-03-28T01:05:52.373Z,41.34
2023-03-28T01:06:25.507Z,41.58
2023-03-28T01:06:59.120Z,41.32
2023-03-28T01:07:40.110Z,41.28
2023-03-28T01:08:15.059Z,41.50
2023-03-28T01:08:49.097Z,41.73
2023-03-28T01:09:24.740Z,41.29
2023-03-28T01:09:59.763Z,41.46
2023-03-28T01:10:33.073Z,41.32
2023-03-28T01:11:09.139Z,41.53
2023-03-28T01:11:42.763Z,41.35
2023-03-28T01:12:18.622Z,41.67
2023-03-28T01:12:54.879Z,41.66
2023-03-28T01:13:29.656Z,41.42
2023-03-28T01:14:02.836Z,41.49
2023-03-28T01:14:37.082Z,41.63
2023-03-28T01:15:14.100Z,41.49
2023-03-28T01:15:56.904Z,41.42
2023-03-28T01:16:31.044Z,41.61
2023-03-28T01:17:09.039Z,41.32
2023-03-28T01:17:41.691Z,41.73
2023-03-28T01:18:16.500Z,41.32
2023-03-28T01:18:53.871Z,41.67
2023-03-28T01:19:37.296Z,41.42
2023-03-28T01:20:22.614Z,41.55
2023-03-28T01:21:19.666Z,41.43
2023-03-28T01:22:14.113Z,41.39
2023-03-28T01:23:19.088Z,41.78
2023-03-28T01:24:34.124Z,41.73
2023-03-28T01:25:38.523Z,41.75
2023-03-28T01:26:32.638Z,41.48
2023-03-28T01:27:13.172Z,41.29
2023-03-28T01:27:52.382Z,41.48
2023-03-28T01:28:58.812Z,41.59
2023-03-28T01:30:22.840Z,41.43
2023-03-28T01:31:30.416Z,41.70
2023-03-28T01:32:46.944Z,41.53
2023-03-28T01:33:39.789Z,41.49
2023-03-28T01:34:35.743Z,41.22
2023-03-28T01:35:34.007Z,41.63
2023-03-28T01:36:51.287Z,41.32
2023-03-28T01:37:39.603Z,41.38
2023-03-28T01:38:22.850Z,41.47
2023-03-28T01:39:00.120Z,41.17
2023-03-28T01:39:42.118Z,41.71
2023-03-28T01:40:27.908Z,41.67
2023-03-28T01:41:11.706Z,41.34
2023-03-28T01:41:54.628Z,41.66
2023-03-28T01:42:33.764Z,41.66
2023-03-28T01:43:17.841Z,41.27
2023-03-28T01:43:56.668Z,41.63
2023-03-28T01:44:34.662Z,41.42
2023-03-28T01:45:15.056Z,41.37
2023-03-28T01:45:55.459Z,41.49
2023-03-28T01:46:30.741Z,41.38
2023-03-28T01:47:07.629Z,41.10
2023-03-28T01:47:44.300Z,41.20
2023-03-28T01:48:24.433Z,41.30
2023-03-28T01:49:04.881Z,41.36
2023-03-28T01:49:40.730Z,41.60
2023-03-28T01:50:18.488Z,41.37
2023-03-28T01:50:57.212Z,41.42
2023-03-28T01:51:37.730Z,41.46
2023-03-28T01:52:21.014Z,41.54
2023-03-28T01:53:03.515Z,41.25
2023-03-28T01:53:41.403Z,41.69
2023-03-28T01:54:22.402Z,41.44
2023-03-28T01:54:58.474Z,41.70
2023-03-28T01:55:42.227Z,41.22
2023-03-28T01:56:25.566Z,41.18
2023-03-28T01:57:03.951Z,41.18
2023-03-28T01:57:45.359Z,41.15
2023-03-28T01:58:23.250Z,41.26
2023-03-28T01:59:04.844Z,41.44
2023-03-28T02:00:04.757Z,41.65
2023-03-28T02:00:40.586Z,41.41
2023-03-28T02:01:15.927Z,41.46
2023-03-28T02:01:55.339Z,41.21
2023-03-28T02:02:32.827Z,41.34
2023-03-28T02:03:12.127Z,41.37
2023-03-28T02:04:20.485Z,41.57
2023-03-28T02:05:07.356Z,41.39
2023-03-28T02:05:47.535Z,41.38
2023-03-28T02:06:23.908Z,41.31
2023-03-28T02:06:57.904Z,41.38
2023-03-28T02:07:36.815Z,41.19
2023-03-28T02:08:17.945Z,41.61
2023-03-28T02:09:00.140Z,41.25
2023-03-28T02:09:44.371Z,41.42
2023-03-28T02:10:30.449Z,41.24
2023-03-28T02:11:12.886Z,41.67
2023-03-28T02:12:13.263Z,41.64
2023-03-28T02:13:20.517Z,41.37
2023-03-28T02:14:17.043Z,41.73
2023-03-28T02:15:04.312Z,41.49
2023-03-28T02:15:58.092Z,41.25
2023-03-28T02:16:55.083Z,41.56
2023-03-28T02:17:50.698Z,41.17
2023-03-28T02:18:49.396Z,41.49
2023-03-28T02:19:34.365Z,41.19
2023-03-28T02:20:19.601Z,41.42
2023-03-28T02:21:11.139Z,41.66
2023-03-28T02:22:12.602Z,41.17
2023-03-28T02:23:18.863Z,41.24
2023-03-28T02:24:14.695Z,41.73
2023-03-28T02:24:58.927Z,41.20
2023-03-28T02:25:43.382Z,41.62
2023-03-28T02:26:39.036Z,41.67
2023-03-28T02:27:37.131Z,41.24
2023-03-28T02:28:39.648Z,41.22
2023-03-28T02:29:24.354Z,41.63
2023-03-28T02:30:03.757Z,41.41
2023-03-28T02:30:46.301Z,41.39
2023-03-28T02:31:21.818Z,41.29
2023-03-28T02:31:54.211Z,41.53
2023-03-28T02:32:29.224Z,41.43
2023-03-28T02:33:02.297Z,41.44
2023-03-28T02:33:39.140Z,41.40
2023-03-28T02:34:14.641Z,41.20
2023-03-28T02:34:50.527Z,41.29
2023-03-28T02:35:29.165Z,41.29
2023-03-28T02:36:13.086Z,41.41
2023-03-28T02:36:51.699Z,41.17
2023-03-28T02:37:34.875Z,41.52
2023-03-28T02:38:13.179Z,41.44
2023-03-28T02:38:57.164Z,41.58
2023-03-28T02:39:43.080Z,41.51
2023-03-28T02:40:37.588Z,41.10
2023-03-28T02:41:18.725Z,41.13
2023-03-28T02:42:01.919Z,41.34
2023-03-28T02:42:41.758Z,41.02
2023-03-28T02:43:29.811Z,41.19
2023-03-28T02:44:12.999Z,41.49
2023-03-28T02:45:03.154Z,41.25
2023-03-28T02:45:53.807Z,41.27
2023-03-28T02:46:30.525Z,41.29
2023-03-28T02:47:14.040Z,41.31
2023-03-28T02:47:54.706Z,41.09
2023-03-28T02:48:40.028Z,41.15
2023-03-28T02:49:35.066Z,41.46
2023-03-28T02:50:26.323Z,41.27
2023-03-28T02:51:06.383Z,41.10
2023-03-28T02:51:41.859Z,41.21
2023-03-28T02:52:24.587Z,40.91
2023-03-28T02:53:02.731Z,41.44
2023-03-28T02:53:44.782Z,41.29
2023-03-28T02:54:30.472Z,41.23
2023-03-28T02:55:25.690Z,41.38
2023-03-28T02:56:37.999Z,41.18
2023-03-28T02:57:16.871Z,40.91
2023-03-28T02:57:59.204Z,41.35
2023-03-28T02:58:37.892Z,41.35
2023-03-28T02:59:14.955Z,41.24
2023-03-28T02:59:52.902Z,40.88
2023-03-28T03:00:25.861Z,41.34
2023-03-28T03:01:02.773Z,41.10
2023-03-28T03:01:36.937Z,40.96
2023-03-28T03:02:09.472Z,41.06
2023-03-28T03:02:46.859Z,41.13
2023-03-28T03:03:19.581Z,40.96
2023-03-28T03:03:52.129Z,41.05
2023-03-28T03:04:27.243Z,41.34
2023-03-28T03:05:02.028Z,40.84
2023-03-28T03:05:34.434Z,41.10
2023-03-28T03:06:10.421Z,41.24
2023-03-28T03:06:42.923Z,41.08
2023-03-28T03:07:18.203Z,41.05
2023-03-28T03:07:53.667Z,41.16
2023-03-28T03:08:28.056Z,41.14
2023-03-28T03:09:04.977Z,40.88
2023-03-28T03:09:44.834Z,40.81
2023-03-28T03:10:18.782Z,41.08
2023-03-28T03:10:52.701Z,41.00
2023-03-28T03:11:29.029Z,41.38
2023-03-28T03:12:01.380Z,40.95
2023-03-28T03:12:33.925Z,41.19
2023-03-28T03:13:08.881Z,41.31
2023-03-28T03:13:43.193Z,41.39
2023-03-28T03:14:15.587Z,41.05
2023-03-28T03:14:52.366Z,40.96
2023-03-28T03:15:47.244Z,41.08
2023-03-28T03:16:31.599Z,41.32
2023-03-28T03:17:05.920Z,41.40
2023-03-28T03:17:38.466Z,41.27
2023-03-28T03:18:14.482Z,41.16
2023-03-28T03:18:46.807Z,41.10
2023-03-28T03:19:19.445Z,41.44
2023-03-28T03:19:54.453Z,41.53
2023-03-28T03:20:27.645Z,40.98
2023-03-28T03:21:01.924Z,41.33
2023-03-28T03:21:37.254Z,41.02
2023-03-28T03:22:09.654Z,41.24
2023-03-28T03:22:55.772Z,41.51
2023-03-28T03:23:31.225Z,41.02
2023-03-28T03:24:06.152Z,41.51
2023-03-28T03:24:41.524Z,41.18
2023-03-28T03:25:16.492Z,41.03
2023-03-28T03:26:07.192Z,41.08
2023-03-28T03:26:49.430Z,41.34
2023-03-28T03:27:22.186Z,41.18
2023-03-28T03:27:54.784Z,40.98
2023-03-28T03:28:29.782Z,41.00
2023-03-28T03:29:03.150Z,41.34
2023-03-28T03:29:38.902Z,41.12
2023-03-28T03:30:16.339Z,41.14
2023-03-28T03:31:08.780Z,41.02
2023-03-28T03:31:58.934Z,41.08
2023-03-28T03:32:46.117Z,40.96
2023-03-28T03:33:18.826Z,41.38
2023-03-28T03:33:57.897Z,40.92
2023-03-28T03:34:34.538Z,41.34
2023-03-28T03:35:08.103Z,40.98
2023-03-28T03:35:45.987Z,41.28
2023-03-28T03:36:19.056Z,41.27
2023-03-28T03:36:55.116Z,41.02
2023-03-28T03:37:28.068Z,41.29
2023-03-28T03:38:00.766Z,41.03
2023-03-28T03:38:33.302Z,41.34
2023-03-28T03:39:09.574Z,41.04
2023-03-28T03:39:45.679Z,41.21
2023-03-28T03:40:20.106Z,40.98
2023-03-28T03:40:55.851Z,41.19
2023-03-28T03:41:28.992Z,41.32
2023-03-28T03:42:01.396Z,41.22
2023-03-28T03:42:40.347Z,41.42
2023-03-28T03:43:12.742Z,41.27
2023-03-28T03:43:47.315Z,41.10
2023-03-28T03:44:22.385Z,41.12
2023-03-28T03:44:56.532Z,41.30
2023-03-28T03:45:29.815Z,41.17
2023-03-28T03:46:05.137Z,41.25
2023-03-28T03:46:37.633Z,41.40
2023-03-28T03:47:10.024Z,41.23
2023-03-28T03:47:44.969Z,41.05
2023-03-28T03:48:17.328Z,40.93
2023-03-28T03:48:50.560Z,41.13
2023-03-28T03:49:26.163Z,41.46
2023-03-28T03:49:58.879Z,41.33
2023-03-28T03:50:31.297Z,41.25
2023-03-28T03:51:06.376Z,41.24
2023-03-28T03:51:39.792Z,41.42
2023-03-28T03:52:15.547Z,41.15
2023-03-28T03:52:47.978Z,41.15
2023-03-28T03:53:20.415Z,41.26
2023-03-28T03:54:24.504Z,41.16
2023-03-28T03:55:01.610Z,40.97
2023-03-28T03:55:34.145Z,41.28
2023-03-28T03:56:10.428Z,41.37
2023-03-28T03:57:15.120Z,40.90
2023-03-28T03:57:50.128Z,41.34
2023-03-28T03:58:22.492Z,40.96
2023-03-28T03:58:55.763Z,40.85
2023-03-28T03:59:34.861Z,40.86
2023-03-28T04:00:12.326Z,41.07
2023-03-28T04:00:58.343Z,41.41
2023-03-28T04:01:44.242Z,41.01
2023-03-28T04:02:44.737Z,41.28
2023-03-28T04:03:24.249Z,41.02
2023-03-28T04:03:57.751Z,40.91
2023-03-28T04:04:45.806Z,40.99
2023-03-28T04:05:35.780Z,41.10
2023-03-28T04:06:17.015Z,41.17
2023-03-28T04:06:49.678Z,40.91
2023-03-28T04:07:22.091Z,41.27
2023-03-28T04:08:01.796Z,41.34
2023-03-28T04:08:39.607Z,40.91
2023-03-28T04:09:12.319Z,41.29
2023-03-28T04:10:07.153Z,41.15
2023-03-28T04:10:44.332Z,40.98
2023-03-28T04:11:18.141Z,40.98
2023-03-28T04:11:53.873Z,41.20
2023-03-28T04:12:27.308Z,41.02
2023-03-28T04:13:01.274Z,40.93
2023-03-28T04:13:36.561Z,41.11
2023-03-28T04:14:09.158Z,41.22
2023-03-28T04:14:41.793Z,41.26
2023-03-28T04:15:51.672Z,41.15
2023-03-28T04:16:40.582Z,40.96
2023-03-28T04:17:16.736Z,41.37
2023-03-28T04:17:50.523Z,41.29
2023-03-28T04:18:26.411Z,41.25
2023-03-28T04:19:01.357Z,41.03
2023-03-28T04:19:34.470Z,41.20
2023-03-28T04:20:11.708Z,41.22
2023-03-28T04:21:02.925Z,41.00
2023-03-28T04:21:43.935Z,40.90
2023-03-28T04:22:18.383Z,40.78
2023-03-28T04:23:00.462Z,41.10
2023-03-28T04:23:38.879Z,41.26
2023-03-28T04:24:15.773Z,41.20
2023-03-28T04:24:58.414Z,41.12
2023-03-28T04:25:44.116Z,41.14
2023-03-28T04:26:28.920Z,41.25
2023-03-28T04:27:12.817Z,40.84
2023-03-28T04:27:54.787Z,41.03
2023-03-28T04:28:29.904Z,41.21
2023-03-28T04:29:10.762Z,40.90
2023-03-28T04:29:47.491Z,41.26
2023-03-28T04:30:44.094Z,40.89
2023-03-28T04:31:56.281Z,40.99
2023-03-28T04:33:07.153Z,40.83
2023-03-28T04:33:47.523Z,40.82
2023-03-28T04:34:25.925Z,41.05
2023-03-28T04:35:19.405Z,40.78
2023-03-28T04:36:02.325Z,40.73
2023-03-28T04:36:41.210Z,41.19
2023-03-28T04:37:13.579Z,40.86
2023-03-28T04:37:57.996Z,40.79
2023-03-28T04:38:36.602Z,41.04
2023-03-28T04:39:27.993Z,41.28
2023-03-28T04:40:16.338Z,41.24
2023-03-28T04:40:58.167Z,40.86
2023-03-28T04:41:55.909Z,41.08
2023-03-28T04:42:31.243Z,41.21
2023-03-28T04:43:09.512Z,41.24
2023-03-28T04:43:48.125Z,41.05
2023-03-28T04:44:20.663Z,41.09
2023-03-28T04:45:00.688Z,40.79
2023-03-28T04:45:35.715Z,40.91
2023-03-28T04:46:18.572Z,40.83
2023-03-28T04:46:51.294Z,41.24
2023-03-28T04:47:26.374Z,40.83
2023-03-28T04:47:58.960Z,40.89
2023-03-28T04:48:31.779Z,41.16
2023-03-28T04:49:06.786Z,40.93
2023-03-28T04:49:40.425Z,41.32
2023-03-28T04:50:16.096Z,41.28
2023-03-28T04:50:49.891Z,40.84
2023-03-28T04:51:23.319Z,41.26
2023-03-28T04:51:58.338Z,41.04
2023-03-28T04:52:31.052Z,41.11
2023-03-28T04:53:03.545Z,41.21
2023-03-28T04:53:38.912Z,41.22
2023-03-28T04:54:40.225Z,41.05
2023-03-28T04:55:20.261Z,41.25
2023-03-28T04:55:57.463Z,41.21
2023-03-28T04:56:32.336Z,40.85
2023-03-28T04:57:07.742Z,41.00
2023-03-28T04:57:56.305Z,41.01
2023-03-28T04:58:31.946Z,40.83
2023-03-28T04:59:04.326Z,41.25
2023-03-28T04:59:36.981Z,41.08
2023-03-28T05:00:17.366Z,41.08
2023-03-28T05:01:16.119Z,41.25
2023-03-28T05:02:15.978Z,41.18
2023-03-28T05:02:54.567Z,40.93
2023-03-28T05:03:27.797Z,41.32
2023-03-28T05:04:10.474Z,41.03
2023-03-28T05:04:43.515Z,41.25
2023-03-28T05:05:18.853Z,41.11
2023-03-28T05:05:53.051Z,41.05
2023-03-28T05:06:26.199Z,41.14
2023-03-28T05:07:02.727Z,41.02
2023-03-28T05:07:35.363Z,41.08
2023-03-28T05:08:08.599Z,41.32
2023-03-28T05:08:44.004Z,41.08
2023-03-28T05:09:17.821Z,41.25
2023-03-28T05:09:50.190Z,41.20
2023-03-28T05:10:25.673Z,40.98
2023-03-28T05:11:04.945Z,41.27
2023-03-28T05:11:37.317Z,41.21
2023-03-28T05:12:12.339Z,41.30
2023-03-28T05:13:06.040Z,41.28
2023-03-28T05:13:48.750Z,40.79
2023-03-28T05:14:43.075Z,41.20
2023-03-28T05:15:23.295Z,40.98
2023-03-28T05:16:09.106Z,40.91
2023-03-28T05:17:04.384Z,40.81
2023-03-28T05:17:41.211Z,40.78
2023-03-28T05:18:29.287Z,41.18
2023-03-28T05:19:01.805Z,41.23
2023-03-28T05:19:56.688Z,41.22
2023-03-28T05:20:30.742Z,41.29
2023-03-28T05:21:04.134Z,41.21
2023-03-28T05:21:40.880Z,41.10
2023-03-28T05:22:13.658Z,40.98
2023-03-28T05:22:48.370Z,41.00
2023-03-28T05:23:23.339Z,41.08
2023-03-28T05:23:58.016Z,40.74
2023-03-28T05:24:30.578Z,41.02
2023-03-28T05:25:06.674Z,41.09
2023-03-28T05:25:41.856Z,41.13
2023-03-28T05:26:20.203Z,41.12
2023-03-28T05:26:53.353Z,40.67
2023-03-28T05:27:28.709Z,41.00
2023-03-28T05:28:03.854Z,40.93
2023-03-28T05:28:38.056Z,41.05
2023-03-28T05:29:10.750Z,41.17
2023-03-28T05:29:46.937Z,41.00
2023-03-28T05:30:20.537Z,40.88
2023-03-28T05:30:57.596Z,40.92
2023-03-28T05:31:33.375Z,40.96
2023-03-28T05:32:26.365Z,40.71
2023-03-28T05:33:03.475Z,40.87
2023-03-28T05:33:36.177Z,40.76
2023-03-28T05:34:09.690Z,41.16
2023-03-28T05:34:52.346Z,41.19
2023-03-28T05:35:24.812Z,41.10
2023-03-28T05:35:57.265Z,41.20
2023-03-28T05:36:32.249Z,41.16
2023-03-28T05:37:05.829Z,40.81
2023-03-28T05:38:01.436Z,41.17
2023-03-28T05:38:33.902Z,41.00
2023-03-28T05:39:13.044Z,41.08
2023-03-28T05:39:48.224Z,40.99
2023-03-28T05:40:21.503Z,40.85
2023-03-28T05:40:55.094Z,40.95
2023-03-28T05:41:32.631Z,41.10
2023-03-28T05:42:05.322Z,40.93
2023-03-28T05:42:41.039Z,41.01
2023-03-28T05:43:24.008Z,41.07
2023-03-28T05:43:56.424Z,41.03
2023-03-28T05:44:47.400Z,41.33
2023-03-28T05:45:47.389Z,40.89
2023-03-28T05:46:27.162Z,41.11
2023-03-28T05:46:59.844Z,41.17
2023-03-28T05:47:33.334Z,41.09
2023-03-28T05:48:08.949Z,40.88
2023-03-28T05:48:42.840Z,41.19
2023-03-28T05:49:23.127Z,40.74
2023-03-28T05:50:00.243Z,40.92
2023-03-28T05:50:32.620Z,40.81
2023-03-28T05:51:12.028Z,41.12
2023-03-28T05:51:46.998Z,41.15
2023-03-28T05:52:19.372Z,41.00
2023-03-28T05:52:53.196Z,40.89
2023-03-28T05:53:28.310Z,41.05
2023-03-28T05:54:01.136Z,41.28
2023-03-28T05:54:33.504Z,41.22
2023-03-28T05:55:07.165Z,40.94
2023-03-28T05:55:42.248Z,41.09
2023-03-28T05:56:14.575Z,40.85
2023-03-28T05:56:52.510Z,41.15
2023-03-28T05:57:30.105Z,41.11
2023-03-28T05:58:05.131Z,41.22
2023-03-28T05:58:42.403Z,40.79
2023-03-28T05:59:15.117Z,41.05
2023-03-28T05:59:50.582Z,40.64
2023-03-28T06:00:25.996Z,41.12
2023-03-28T06:01:02.773Z,40.73
2023-03-28T06:01:35.274Z,40.84
2023-03-28T06:02:14.832Z,40.90
2023-03-28T06:02:50.696Z,40.74
2023-03-28T06:03:31.968Z,41.08
2023-03-28T06:04:09.961Z,40.67
2023-03-28T06:04:42.874Z,40.80
2023-03-28T06:05:21.470Z,41.06
2023-03-28T06:05:54.202Z,40.76
2023-03-28T06:06:33.190Z,41.13
2023-03-28T06:07:06.281Z,40.67
2023-03-28T06:07:42.944Z,40.90
2023-03-28T06:08:20.864Z,41.15
2023-03-28T06:08:53.686Z,40.93
2023-03-28T06:09:26.466Z,40.79
2023-03-28T06:10:06.912Z,41.14
2023-03-28T06:10:40.177Z,40.86
2023-03-28T06:11:25.308Z,41.08
2023-03-28T06:12:14.115Z,40.79
2023-03-28T06:12:55.962Z,41.13
2023-03-28T06:13:29.062Z,41.22
2023-03-28T06:14:05.024Z,41.19
2023-03-28T06:14:37.392Z,41.17
2023-03-28T06:15:14.097Z,41.07
2023-03-28T06:15:53.131Z,41.04
2023-03-28T06:16:34.007Z,41.22
2023-03-28T06:17:08.030Z,41.16
2023-03-28T06:17:58.266Z,40.86
2023-03-28T06:18:30.680Z,40.91
2023-03-28T06:19:16.599Z,41.16
2023-03-28T06:19:58.697Z,40.88
2023-03-28T06:20:31.600Z,40.88
2023-03-28T06:21:07.234Z,41.26
2023-03-28T06:21:39.833Z,41.27
2023-03-28T06:22:12.469Z,40.85
2023-03-28T06:22:50.482Z,41.02
2023-03-28T06:23:22.872Z,40.90
2023-03-28T06:23:55.798Z,41.23
2023-03-28T06:24:36.007Z,40.96
2023-03-28T06:25:09.827Z,40.76
2023-03-28T06:25:42.562Z,41.03
2023-03-28T06:26:17.657Z,40.86
2023-03-28T06:26:51.121Z,40.63
2023-03-28T06:27:30.223Z,40.60
2023-03-28T06:28:05.769Z,40.68
2023-03-28T06:28:42.551Z,40.66
2023-03-28T06:29:40.323Z,40.57
2023-03-28T06:30:14.361Z,40.82
2023-03-28T06:30:53.983Z,41.01
2023-03-28T06:31:26.370Z,40.99
2023-03-28T06:31:58.860Z,40.51
2023-03-28T06:32:33.950Z,40.64
2023-03-28T06:33:07.724Z,40.76
2023-03-28T06:33:43.404Z,40.62
2023-03-28T06:34:17.474Z,40.43
2023-03-28T06:35:03.575Z,40.47
2023-03-28T06:35:36.378Z,40.44
2023-03-28T06:36:10.124Z,40.39
2023-03-28T06:36:45.143Z,40.83
2023-03-28T06:37:17.729Z,40.44
2023-03-28T06:38:10.046Z,40.46
2023-03-28T06:38:44.814Z,40.80
2023-03-28T06:39:18.302Z,40.69
2023-03-28T06:39:54.439Z,40.83
2023-03-28T06:40:27.185Z,40.31
2023-03-28T06:41:03.165Z,40.69
2023-03-28T06:41:35.579Z,40.84
2023-03-28T06:42:09.133Z,40.37
2023-03-28T06:42:56.762Z,40.48
2023-03-28T06:43:47.859Z,40.77
2023-03-28T06:44:41.377Z,40.57
2023-03-28T06:45:33.980Z,40.76
2023-03-28T06:46:13.858Z,40.69
2023-03-28T06:46:50.160Z,40.58
2023-03-28T06:47:26.221Z,40.43
2023-03-28T06:47:58.720Z,40.74
2023-03-28T06:48:50.063Z,40.78
2023-03-28T06:49:40.774Z,40.72
2023-03-28T06:50:35.654Z,40.54
2023-03-28T06:51:15.074Z,40.47
2023-03-28T06:51:49.895Z,40.69
2023-03-28T06:52:25.176Z,40.88
2023-03-28T06:52:58.737Z,40.89
2023-03-28T06:53:32.097Z,40.64
2023-03-28T06:54:07.230Z,40.86
2023-03-28T06:54:39.654Z,40.71
2023-03-28T06:55:12.182Z,40.64
2023-03-28T06:55:47.229Z,40.82
2023-03-28T06:56:19.683Z,40.62
2023-03-28T06:56:54.719Z,40.48
2023-03-28T06:57:27.149Z,40.69
2023-03-28T06:58:13.071Z,40.62
2023-03-28T06:58:57.370Z,40.47
2023-03-28T06:59:32.158Z,40.86
2023-03-28T07:00:12.960Z,40.54
2023-03-28T07:01:06.523Z,40.81
2023-03-28T07:01:53.583Z,40.96
2023-03-28T07:02:32.476Z,40.64
2023-03-28T07:03:12.219Z,40.63
2023-03-28T07:03:44.730Z,40.57
2023-03-28T07:04:25.594Z,40.93
2023-03-28T07:04:57.986Z,41.00
2023-03-28T07:05:30.549Z,40.54
2023-03-28T07:06:10.493Z,40.71
2023-03-28T07:06:42.863Z,40.92
2023-03-28T07:07:15.585Z,40.81
2023-03-28T07:07:50.746Z,40.64
2023-03-28T07:08:23.294Z,40.94
2023-03-28T07:09:01.631Z,40.50
2023-03-28T07:09:44.590Z,40.87
2023-03-28T07:10:20.753Z,40.79
2023-03-28T07:10:53.440Z,40.28
2023-03-28T07:11:26.922Z,40.30
2023-03-28T07:12:02.150Z,40.41
2023-03-28T07:12:34.522Z,40.61
2023-03-28T07:13:07.277Z,40.68
2023-03-28T07:13:46.476Z,40.41
2023-03-28T07:14:19.314Z,40.67
2023-03-28T07:14:54.363Z,40.54
2023-03-28T07:15:26.707Z,40.45
2023-03-28T07:16:03.703Z,40.50
2023-03-28T07:16:38.817Z,40.59
2023-03-28T07:17:12.030Z,40.53
2023-03-28T07:17:44.492Z,40.59
2023-03-28T07:18:21.214Z,40.42
2023-03-28T07:18:53.710Z,40.54
2023-03-28T07:19:31.842Z,40.74
2023-03-28T07:20:08.114Z,40.78
2023-03-28T07:20:41.694Z,40.76
2023-03-28T07:21:18.996Z,40.45
2023-03-28T07:21:53.163Z,40.42
2023-03-28T07:22:30.939Z,40.54
2023-03-28T07:23:03.285Z,40.48
2023-03-28T07:23:36.553Z,40.47
2023-03-28T07:24:11.668Z,40.65
2023-03-28T07:25:08.350Z,40.56
2023-03-28T07:25:44.382Z,40.47
2023-03-28T07:26:17.291Z,40.61
2023-03-28T07:27:01.215Z,40.34
2023-03-28T07:27:44.564Z,40.77
2023-03-28T07:28:24.400Z,40.48
2023-03-28T07:28:59.463Z,40.72
2023-03-28T07:29:36.075Z,40.77
2023-03-28T07:30:10.217Z,40.51
2023-03-28T07:30:45.199Z,40.76
2023-03-28T07:31:18.622Z,40.71
2023-03-28T07:31:52.036Z,40.79
2023-03-28T07:32:33.253Z,41.17
2023-03-28T07:33:18.032Z,41.14
2023-03-28T07:33:58.829Z,41.15
2023-03-28T07:34:31.448Z,41.03
2023-03-28T07:35:10.304Z,40.73
2023-03-28T07:35:52.926Z,40.53
2023-03-28T07:36:31.202Z,40.63
2023-03-28T07:37:12.974Z,40.93
2023-03-28T07:37:59.558Z,40.98
2023-03-28T07:38:51.796Z,40.71
2023-03-28T07:39:28.692Z,40.67
2023-03-28T07:40:05.544Z,40.72
2023-03-28T07:40:40.572Z,40.47
2023-03-28T07:41:13.986Z,40.72
2023-03-28T07:41:49.800Z,40.83
2023-03-28T07:42:23.656Z,40.54
2023-03-28T07:42:58.679Z,40.78
2023-03-28T07:43:31.219Z,40.65
2023-03-28T07:44:10.271Z,40.55
2023-03-28T07:44:43.124Z,40.47
2023-03-28T07:45:15.706Z,40.43
2023-03-28T07:45:51.013Z,40.67
2023-03-28T07:46:24.699Z,40.68
2023-03-28T07:46:59.721Z,40.53
2023-03-28T07:47:32.187Z,40.41
2023-03-28T07:48:04.925Z,40.63
2023-03-28T07:48:41.281Z,40.82
2023-03-28T07:49:15.635Z,40.77
2023-03-28T07:49:48.189Z,40.55
2023-03-28T07:50:24.873Z,40.76
2023-03-28T07:50:59.654Z,40.74
2023-03-28T07:51:35.487Z,40.83
2023-03-28T07:52:07.916Z,40.76
2023-03-28T07:52:45.787Z,40.86
2023-03-28T07:53:22.174Z,40.77
2023-03-28T07:53:54.748Z,40.62
2023-03-28T07:54:33.319Z,40.62
2023-03-28T07:55:06.791Z,40.50
2023-03-28T07:55:54.429Z,40.42
2023-03-28T07:56:32.513Z,41.44
2023-03-28T07:57:25.939Z,41.56
2023-03-28T07:58:07.637Z,40.61
2023-03-28T07:58:46.328Z,40.52
2023-03-28T07:59:21.310Z,40.35
2023-03-28T08:00:00.339Z,40.23
2023-03-28T08:00:34.310Z,40.17
2023-03-28T08:01:42.072Z,40.27
2023-03-28T08:02:16.096Z,40.04
2023-03-28T08:02:51.340Z,40.22
2023-03-28T08:03:24.097Z,39.68
2023-03-28T08:03:59.755Z,39.89
2023-03-28T08:04:41.427Z,39.55
2023-03-28T08:05:14.860Z,39.65
2023-03-28T08:05:52.482Z,39.46
2023-03-28T08:06:32.480Z,39.68
2023-03-28T08:07:10.911Z,39.42
2023-03-28T08:07:46.246Z,39.38
2023-03-28T08:08:22.257Z,39.50
2023-03-28T08:09:08.512Z,38.91
2023-03-28T08:09:51.105Z,39.05
2023-03-28T08:10:29.610Z,38.92
2023-03-28T08:11:04.646Z,39.14
2023-03-28T08:11:38.750Z,39.36
2023-03-28T08:12:13.706Z,39.48
2023-03-28T08:12:48.112Z,39.34
2023-03-28T08:13:23.497Z,39.21
2023-03-28T08:13:56.067Z,39.35
2023-03-28T08:14:34.744Z,39.48
2023-03-28T08:15:08.673Z,39.01
2023-03-28T08:15:43.663Z,39.02
2023-03-28T08:16:16.422Z,39.46
2023-03-28T08:16:48.865Z,39.24
2023-03-28T08:17:24.019Z,38.87
2023-03-28T08:17:58.003Z,39.34
2023-03-28T08:18:33.003Z,39.31